Time;durP1;ratioP1;P1;durP2;ratioP2;P2;SDS_P1;SDS_P2;PMS_P1;PMS_P2;Temp;Humidity;BMP_temperature;BMP_pressure;BME280_temperature;BME280_humidity;BME280_pressure;Samples;Min_cycle;Max_cycle;Signal;HPM_P1;HPM_P2
2022/04/12 00:00:29;;;;;;;;;;;3.20;99.90;;;;;;5051219;28;19909;-73
2022/04/12 00:02:55;;;;;;;;;;;3.10;99.90;;;;;;5050963;28;19909;-73
2022/04/12 00:05:21;;;;;;;;;;;3.40;99.90;;;;;;5051020;28;19947;-73
2022/04/12 00:07:46;;;;;;;;;;;3.60;99.90;;;;;;5051134;28;19913;-72
2022/04/12 00:10:13;;;;;;;;;;;4.20;99.90;;;;;;5049838;28;19909;-72
2022/04/12 00:12:38;;;;;;;;;;;4.50;99.90;;;;;;5050814;28;20003;-72
2022/04/12 00:15:04;;;;;;;;;;;4.10;99.90;;;;;;5050948;28;19948;-73
2022/04/12 00:20:14;;;;;;;;;;;3.40;99.90;;;;;;5051106;28;20384;-73
2022/04/12 00:22:40;;;;;;;;;;;3.30;99.90;;;;;;5051104;28;19959;-73
2022/04/12 00:25:09;;;;;;;;;;;3.30;99.90;;;;;;5050679;28;19909;-73
2022/04/12 00:27:35;;;;;;;;;;;3.50;99.90;;;;;;5050947;28;20389;-73
2022/04/12 00:30:00;;;;;;;;;;;3.40;99.90;;;;;;5050892;28;19913;-72
2022/04/12 00:32:26;;;;;;;;;;;3.20;99.90;;;;;;5050855;28;19916;-73
2022/04/12 00:34:51;;;;;;;;;;;3.20;99.90;;;;;;5050261;28;19920;-72
2022/04/12 00:37:17;;;;;;;;;;;3.20;99.90;;;;;;5051130;28;19955;-72
2022/04/12 00:39:42;;;;;;;;;;;3.20;99.90;;;;;;5047757;28;19909;-73
2022/04/12 00:42:08;;;;;;;;;;;3.40;99.90;;;;;;5050501;28;19909;-72
2022/04/12 00:44:33;;;;;;;;;;;3.50;99.90;;;;;;5050465;28;20608;-72
2022/04/12 00:46:59;;;;;;;;;;;3.40;99.90;;;;;;5050977;28;19913;-73
2022/04/12 00:49:25;;;;;;;;;;;3.20;99.90;;;;;;5050698;28;20404;-73
2022/04/12 00:51:51;;;;;;;;;;;3.10;99.90;;;;;;5050588;28;19919;-72
2022/04/12 00:54:19;;;;;;;;;;;3.00;99.90;;;;;;5050477;28;20191;-72
2022/04/12 00:56:48;;;;;;;;;;;3.20;99.90;;;;;;5050731;28;19916;-72
2022/04/12 00:59:14;;;;;;;;;;;3.30;99.90;;;;;;5050622;28;19909;-72
2022/04/12 01:01:39;;;;;;;;;;;3.40;99.90;;;;;;5050933;28;19909;-72
2022/04/12 01:04:05;;;;;;;;;;;3.40;99.90;;;;;;5050526;28;19918;-73
2022/04/12 01:06:30;;;;;;;;;;;3.20;99.90;;;;;;5050655;28;19955;-72
2022/04/12 01:08:56;;;;;;;;;;;3.20;99.90;;;;;;5053736;28;19920;-72
2022/04/12 01:11:22;;;;;;;;;;;3.30;99.90;;;;;;5051394;28;19909;-72
2022/04/12 01:13:47;;;;;;;;;;;3.50;99.90;;;;;;5048960;28;19916;-73
2022/04/12 01:16:12;;;;;;;;;;;3.30;99.90;;;;;;5053950;28;19995;-72
2022/04/12 01:18:40;;;;;;;;;;;3.20;99.90;;;;;;5054045;28;19924;-72
2022/04/12 01:21:05;;;;;;;;;;;3.20;99.90;;;;;;5047861;28;19909;-73
2022/04/12 01:23:33;;;;;;;;;;;3.10;99.90;;;;;;5046960;28;19963;-72
2022/04/12 01:25:59;;;;;;;;;;;2.80;99.90;;;;;;5054144;28;19955;-72
2022/04/12 01:28:25;;;;;;;;;;;2.70;99.90;;;;;;5053877;28;19952;-72
2022/04/12 01:30:51;;;;;;;;;;;2.60;99.90;;;;;;5054074;28;20283;-72
2022/04/12 01:33:16;;;;;;;;;;;2.70;99.90;;;;;;5053669;28;20420;-72
2022/04/12 01:35:42;;;;;;;;;;;2.90;99.90;;;;;;5053966;28;19909;-72
2022/04/12 01:38:07;;;;;;;;;;;2.90;99.90;;;;;;5054405;28;19916;-73
2022/04/12 01:40:33;;;;;;;;;;;2.80;99.90;;;;;;5053883;28;19908;-72
2022/04/12 01:42:58;;;;;;;;;;;2.90;99.90;;;;;;5053377;28;19935;-72
2022/04/12 01:45:26;;;;;;;;;;;2.90;99.90;;;;;;5053267;28;20263;-72
2022/04/12 01:47:52;;;;;;;;;;;2.80;99.90;;;;;;5053592;28;19947;-73
2022/04/12 01:50:18;;;;;;;;;;;2.70;99.90;;;;;;5052332;28;19909;-73
2022/04/12 01:52:43;;;;;;;;;;;2.70;99.90;;;;;;5055406;28;19908;-71
2022/04/12 01:55:09;;;;;;;;;;;2.60;99.90;;;;;;5053742;28;19931;-72
2022/04/12 01:57:35;;;;;;;;;;;2.60;99.90;;;;;;5053310;28;20349;-72
2022/04/12 02:00:00;;;;;;;;;;;2.40;99.90;;;;;;5053455;28;20032;-72
2022/04/12 02:02:26;;;;;;;;;;;2.30;99.90;;;;;;5053319;28;19915;-71
2022/04/12 02:04:52;;;;;;;;;;;2.10;99.90;;;;;;5053106;28;19909;-72
2022/04/12 02:07:17;;;;;;;;;;;2.00;99.90;;;;;;5053194;28;19909;-72
2022/04/12 02:09:43;;;;;;;;;;;2.00;99.90;;;;;;5053271;28;19917;-73
2022/04/12 02:12:09;;;;;;;;;;;1.90;99.90;;;;;;5052732;28;19909;-73
2022/04/12 02:14:34;;;;;;;;;;;1.90;99.90;;;;;;5052651;28;19956;-73
2022/04/12 02:17:00;;;;;;;;;;;1.90;99.90;;;;;;5053091;28;20091;-72
2022/04/12 02:19:25;;;;;;;;;;;1.90;99.90;;;;;;5053079;28;19991;-72
2022/04/12 02:21:51;;;;;;;;;;;1.90;99.90;;;;;;5052791;28;19908;-73
2022/04/12 02:24:16;;;;;;;;;;;1.90;99.90;;;;;;5053227;28;19955;-72
2022/04/12 02:26:42;;;;;;;;;;;1.90;99.90;;;;;;5052963;28;20281;-72
2022/04/12 02:29:07;;;;;;;;;;;1.90;99.90;;;;;;5051653;28;20003;-72
2022/04/12 02:31:33;;;;;;;;;;;2.00;99.90;;;;;;5052607;28;19909;-72
2022/04/12 02:33:59;;;;;;;;;;;2.00;99.90;;;;;;5052527;28;19909;-72
2022/04/12 02:36:24;;;;;;;;;;;2.00;99.90;;;;;;5052815;28;19909;-72
2022/04/12 02:38:50;;;;;;;;;;;1.90;99.90;;;;;;5052769;28;19912;-72
2022/04/12 02:41:15;;;;;;;;;;;1.90;99.90;;;;;;5051702;28;20362;-72
2022/04/12 02:43:41;;;;;;;;;;;1.80;99.90;;;;;;5047210;28;19912;-72
2022/04/12 02:46:06;;;;;;;;;;;1.80;99.90;;;;;;5052662;28;19909;-72
2022/04/12 02:48:32;;;;;;;;;;;1.60;99.90;;;;;;5052343;28;20396;-72
2022/04/12 02:50:57;;;;;;;;;;;1.70;99.90;;;;;;5052206;28;19916;-73
2022/04/12 02:53:23;;;;;;;;;;;1.60;99.90;;;;;;5052032;28;19916;-72
2022/04/12 02:55:48;;;;;;;;;;;1.60;99.90;;;;;;5052601;28;20400;-72
2022/04/12 02:58:13;;;;;;;;;;;1.60;99.90;;;;;;5052382;28;19919;-73
2022/04/12 03:00:39;;;;;;;;;;;1.40;99.90;;;;;;5052292;28;20380;-72
2022/04/12 03:03:04;;;;;;;;;;;1.20;99.90;;;;;;5051834;28;19908;-72
2022/04/12 03:05:30;;;;;;;;;;;1.10;99.90;;;;;;5052034;28;19909;-72
2022/04/12 03:07:55;;;;;;;;;;;1.00;99.90;;;;;;5052445;28;19952;-73
2022/04/12 03:10:21;;;;;;;;;;;0.90;99.90;;;;;;5051921;28;20409;-72
2022/04/12 03:12:46;;;;;;;;;;;0.90;99.90;;;;;;5050970;28;19979;-72
2022/04/12 03:15:12;;;;;;;;;;;0.90;99.90;;;;;;5051386;28;19912;-73
2022/04/12 03:17:37;;;;;;;;;;;0.90;99.90;;;;;;5051863;28;19917;-72
2022/04/12 03:20:03;;;;;;;;;;;0.90;99.90;;;;;;5051817;28;19909;-72
2022/04/12 03:22:28;;;;;;;;;;;0.80;99.90;;;;;;5051757;28;19909;-72
2022/04/12 03:24:55;;;;;;;;;;;1.00;99.90;;;;;;5051918;28;19908;-73
2022/04/12 03:27:20;;;;;;;;;;;1.10;99.90;;;;;;5051628;28;20277;-72
2022/04/12 03:29:46;;;;;;;;;;;1.00;99.90;;;;;;5051155;28;19916;-72
2022/04/12 03:32:11;;;;;;;;;;;0.90;99.90;;;;;;5051438;28;19909;-72
2022/04/12 03:34:39;;;;;;;;;;;0.90;99.90;;;;;;5051211;28;19932;-72
2022/04/12 03:37:04;;;;;;;;;;;1.00;99.90;;;;;;5051902;28;19952;-72
2022/04/12 03:39:30;;;;;;;;;;;1.10;99.90;;;;;;5051512;28;20398;-72
2022/04/12 03:41:55;;;;;;;;;;;1.20;99.90;;;;;;5048260;28;19921;-72
2022/04/12 03:44:21;;;;;;;;;;;1.20;99.90;;;;;;5050932;28;19931;-72
2022/04/12 03:46:46;;;;;;;;;;;1.00;99.90;;;;;;5051494;28;19909;-72
2022/04/12 03:49:12;;;;;;;;;;;0.80;99.90;;;;;;5047702;28;19913;-72
2022/04/12 03:51:37;;;;;;;;;;;0.70;99.90;;;;;;5050949;28;19962;-72
2022/04/12 03:54:03;;;;;;;;;;;0.70;99.90;;;;;;5050937;28;19909;-74
2022/04/12 03:56:29;;;;;;;;;;;0.80;99.90;;;;;;5051187;28;19954;-72
2022/04/12 03:58:57;;;;;;;;;;;0.70;99.90;;;;;;5051215;28;19913;-72
2022/04/12 04:01:23;;;;;;;;;;;0.70;99.90;;;;;;5051301;28;20321;-73
2022/04/12 04:03:48;;;;;;;;;;;0.80;99.90;;;;;;5051104;28;19919;-72
2022/04/12 04:06:14;;;;;;;;;;;0.90;99.90;;;;;;5051141;28;19969;-72
2022/04/12 04:08:39;;;;;;;;;;;0.80;99.90;;;;;;5051071;28;19924;-72
2022/04/12 04:11:05;;;;;;;;;;;0.90;99.90;;;;;;5050843;28;19915;-72
2022/04/12 04:13:36;;;;;;;;;;;0.80;99.90;;;;;;5045090;28;20281;-72
2022/04/12 04:16:02;;;;;;;;;;;0.70;99.90;;;;;;5050812;28;19908;-73
2022/04/12 04:18:28;;;;;;;;;;;0.70;99.90;;;;;;5051189;28;20274;-72
2022/04/12 04:20:53;;;;;;;;;;;0.90;99.90;;;;;;5050990;28;19912;-72
2022/04/12 04:23:18;;;;;;;;;;;0.90;99.90;;;;;;5050450;28;19909;-72
2022/04/12 04:25:44;;;;;;;;;;;1.10;99.90;;;;;;5050979;28;20293;-72
2022/04/12 04:28:12;;;;;;;;;;;1.20;99.90;;;;;;5050915;28;19923;-73
2022/04/12 04:30:38;;;;;;;;;;;0.80;99.90;;;;;;5049104;28;20350;-72
2022/04/12 04:33:05;;;;;;;;;;;0.70;99.90;;;;;;5050436;28;19932;-72
2022/04/12 04:35:31;;;;;;;;;;;0.80;99.90;;;;;;5050784;28;19923;-72
2022/04/12 04:37:56;;;;;;;;;;;0.90;99.90;;;;;;5050661;28;19909;-72
2022/04/12 04:40:22;;;;;;;;;;;0.90;99.90;;;;;;5050837;28;20417;-72
2022/04/12 04:42:51;;;;;;;;;;;1.00;99.90;;;;;;5052775;28;19978;-72
2022/04/12 04:45:16;;;;;;;;;;;1.00;99.90;;;;;;5054645;28;19909;-72
2022/04/12 04:47:52;;;;;;;;;;;1.10;99.90;;;;;;5054534;28;19920;-72
2022/04/12 04:50:18;;;;;;;;;;;1.10;99.90;;;;;;5054007;28;19912;-72
2022/04/12 04:52:44;;;;;;;;;;;1.00;99.90;;;;;;5054469;28;20167;-72
2022/04/12 04:55:10;;;;;;;;;;;0.90;99.90;;;;;;5054379;28;19967;-72
2022/04/12 04:57:39;;;;;;;;;;;0.90;99.90;;;;;;5054453;28;19909;-72
2022/04/12 05:00:05;;;;;;;;;;;0.80;99.90;;;;;;5053584;28;19909;-73
2022/04/12 05:02:31;;;;;;;;;;;0.70;99.90;;;;;;5054060;28;19909;-72
2022/04/12 05:04:57;;;;;;;;;;;0.70;99.90;;;;;;5054328;28;19913;-72
2022/04/12 05:07:26;;;;;;;;;;;0.70;99.90;;;;;;5054381;28;19913;-72
2022/04/12 05:09:52;;;;;;;;;;;0.90;99.90;;;;;;5054479;28;19996;-72
2022/04/12 05:12:17;;;;;;;;;;;1.10;99.90;;;;;;5054030;28;19948;-72
2022/04/12 05:14:43;;;;;;;;;;;1.10;99.90;;;;;;5054106;28;19909;-72
2022/04/12 05:17:08;;;;;;;;;;;1.00;99.90;;;;;;5053989;28;20384;-72
2022/04/12 05:19:34;;;;;;;;;;;1.00;99.90;;;;;;5054089;28;19915;-72
2022/04/12 05:21:59;;;;;;;;;;;0.90;99.90;;;;;;5053974;28;19909;-72
2022/04/12 05:24:25;;;;;;;;;;;1.00;99.90;;;;;;5053871;28;19916;-72
2022/04/12 05:26:50;;;;;;;;;;;1.20;99.90;;;;;;5054229;28;19938;-72
2022/04/12 05:29:16;;;;;;;;;;;1.40;99.90;;;;;;5053885;28;19920;-72
2022/04/12 05:31:41;;;;;;;;;;;1.50;99.90;;;;;;5053652;28;20274;-72
2022/04/12 05:34:07;;;;;;;;;;;1.60;99.90;;;;;;5053291;28;20034;-72
2022/04/12 05:36:32;;;;;;;;;;;1.80;99.90;;;;;;5054054;28;19927;-72
2022/04/12 05:38:58;;;;;;;;;;;2.00;99.90;;;;;;5048382;28;20259;-72
2022/04/12 05:41:23;;;;;;;;;;;2.10;99.90;;;;;;5055027;28;19916;-73
2022/04/12 05:43:49;;;;;;;;;;;2.30;99.90;;;;;;5054100;28;19916;-72
2022/04/12 05:46:15;;;;;;;;;;;2.40;99.90;;;;;;5053932;28;19916;-72
2022/04/12 05:48:40;;;;;;;;;;;2.40;99.90;;;;;;5053845;28;19924;-72
2022/04/12 05:51:06;;;;;;;;;;;2.50;99.90;;;;;;5053858;28;19919;-73
2022/04/12 05:53:31;;;;;;;;;;;2.60;99.90;;;;;;5053059;28;20358;-72
2022/04/12 05:55:57;;;;;;;;;;;2.60;99.90;;;;;;5053923;28;19913;-72
2022/04/12 05:58:22;;;;;;;;;;;2.60;99.90;;;;;;5053737;28;19963;-73
2022/04/12 06:00:48;;;;;;;;;;;2.80;99.90;;;;;;5052725;28;20380;-73
2022/04/12 06:03:13;;;;;;;;;;;2.90;99.90;;;;;;5053554;28;19916;-72
2022/04/12 06:05:39;;;;;;;;;;;2.90;99.90;;;;;;5054060;28;19915;-74
2022/04/12 06:08:04;;;;;;;;;;;3.10;99.90;;;;;;5054267;28;19913;-74
2022/04/12 06:10:30;;;;;;;;;;;3.20;99.90;;;;;;5048682;28;20003;-73
2022/04/12 06:12:55;;;;;;;;;;;3.20;99.90;;;;;;5054413;28;19909;-73
2022/04/12 06:15:21;;;;;;;;;;;3.30;99.90;;;;;;5054205;28;20373;-73
2022/04/12 06:17:47;;;;;;;;;;;3.40;99.90;;;;;;5054096;28;19923;-74
2022/04/12 06:20:17;;;;;;;;;;;3.50;99.90;;;;;;5054140;28;19912;-73
2022/04/12 06:22:43;;;;;;;;;;;3.70;99.90;;;;;;5054155;28;20254;-73
2022/04/12 06:25:09;;;;;;;;;;;4.00;99.90;;;;;;5049755;28;19936;-73
2022/04/12 06:27:40;;;;;;;;;;;4.40;99.90;;;;;;5050348;28;19917;-71
2022/04/12 06:30:06;;;;;;;;;;;4.90;99.90;;;;;;5052059;28;19920;-72
2022/04/12 06:32:32;;;;;;;;;;;5.00;99.90;;;;;;5053340;28;20362;-72
2022/04/12 06:34:58;;;;;;;;;;;5.20;99.90;;;;;;5053833;28;19954;-72
2022/04/12 06:37:24;;;;;;;;;;;5.30;99.90;;;;;;5051867;28;20281;-72
2022/04/12 06:39:50;;;;;;;;;;;5.60;99.90;;;;;;5054039;28;20003;-72
2022/04/12 06:42:15;;;;;;;;;;;5.80;99.90;;;;;;5054382;28;20371;-72
2022/04/12 06:44:41;;;;;;;;;;;5.90;99.90;;;;;;5054107;28;19909;-72
2022/04/12 06:47:07;;;;;;;;;;;6.00;99.90;;;;;;5053879;28;20366;-73
2022/04/12 06:49:33;;;;;;;;;;;6.30;99.90;;;;;;5053918;28;19917;-72
2022/04/12 06:51:59;;;;;;;;;;;6.50;99.90;;;;;;5053931;28;19909;-72
2022/04/12 06:54:25;;;;;;;;;;;6.70;99.90;;;;;;5051220;28;20671;-72
2022/04/12 06:56:51;;;;;;;;;;;6.90;99.90;;;;;;5051695;28;19962;-71
2022/04/12 06:59:16;;;;;;;;;;;7.10;99.90;;;;;;5051503;28;19940;-72
2022/04/12 07:01:42;;;;;;;;;;;7.30;99.90;;;;;;5050935;28;20354;-72
2022/04/12 07:04:07;;;;;;;;;;;7.50;99.90;;;;;;5045956;28;19908;-74
2022/04/12 07:06:33;;;;;;;;;;;7.80;99.90;;;;;;5052506;28;19913;-72
2022/04/12 07:08:58;;;;;;;;;;;8.10;99.90;;;;;;5052532;28;20008;-72
2022/04/12 07:11:23;;;;;;;;;;;8.30;99.90;;;;;;5052519;28;19956;-73
2022/04/12 07:13:49;;;;;;;;;;;8.60;99.90;;;;;;5052966;28;19956;-72
2022/04/12 07:16:14;;;;;;;;;;;9.00;99.90;;;;;;5052359;28;20365;-72
2022/04/12 07:18:41;;;;;;;;;;;9.20;99.90;;;;;;5052289;28;19921;-72
2022/04/12 07:21:07;;;;;;;;;;;9.50;99.90;;;;;;5053124;28;19909;-72
2022/04/12 07:23:35;;;;;;;;;;;9.90;99.90;;;;;;5053021;28;19920;-72
2022/04/12 07:26:00;;;;;;;;;;;10.40;99.90;;;;;;5053685;28;20010;-72
2022/04/12 07:28:26;;;;;;;;;;;11.10;99.20;;;;;;5052964;28;19970;-73
2022/04/12 07:30:51;;;;;;;;;;;12.20;98.30;;;;;;5051789;28;19909;-72
2022/04/12 07:33:17;;;;;;;;;;;12.50;95.80;;;;;;5052925;28;19917;-73
2022/04/12 07:35:43;;;;;;;;;;;13.20;92.80;;;;;;5043441;28;19909;-72
2022/04/12 07:38:09;;;;;;;;;;;14.00;91.90;;;;;;5032468;28;19913;-73
2022/04/12 07:40:34;;;;;;;;;;;14.20;90.50;;;;;;5044652;28;19913;-73
2022/04/12 07:43:00;;;;;;;;;;;14.60;90.30;;;;;;5046702;28;20381;-72
2022/04/12 07:45:26;;;;;;;;;;;14.10;90.90;;;;;;5049433;28;20346;-72
2022/04/12 07:47:51;;;;;;;;;;;14.10;90.60;;;;;;5052078;28;20011;-72
2022/04/12 07:50:17;;;;;;;;;;;14.50;90.10;;;;;;5052383;28;19916;-73
2022/04/12 07:52:43;;;;;;;;;;;14.80;89.80;;;;;;5052117;28;19909;-74
2022/04/12 07:55:08;;;;;;;;;;;15.50;87.00;;;;;;5047726;28;19909;-73
2022/04/12 07:57:34;;;;;;;;;;;15.60;85.70;;;;;;5047227;28;19908;-73
2022/04/12 07:59:59;;;;;;;;;;;15.70;84.10;;;;;;5049782;28;19913;-73
2022/04/12 08:02:25;;;;;;;;;;;16.10;81.20;;;;;;5051648;28;19913;-74
2022/04/12 08:04:50;;;;;;;;;;;16.80;73.60;;;;;;5049443;28;19959;-72
2022/04/12 08:07:16;;;;;;;;;;;17.30;71.10;;;;;;5050123;28;20273;-73
2022/04/12 08:09:41;;;;;;;;;;;17.50;70.00;;;;;;5051545;28;20316;-73
2022/04/12 08:12:06;;;;;;;;;;;17.70;71.80;;;;;;5051720;28;19909;-73
2022/04/12 08:14:32;;;;;;;;;;;17.80;71.60;;;;;;5044810;28;19916;-73
2022/04/12 08:16:58;;;;;;;;;;;17.90;67.10;;;;;;5051420;28;20354;-73
2022/04/12 08:19:23;;;;;;;;;;;18.00;63.70;;;;;;5051689;28;19913;-74
2022/04/12 08:21:49;;;;;;;;;;;17.70;65.20;;;;;;5051539;28;19909;-73
2022/04/12 08:24:14;;;;;;;;;;;17.50;70.60;;;;;;5051587;28;19909;-73
2022/04/12 08:26:40;;;;;;;;;;;18.40;67.80;;;;;;5046062;28;19917;-73
2022/04/12 08:29:05;;;;;;;;;;;19.00;67.00;;;;;;5046685;28;19913;-73
2022/04/12 08:31:31;;;;;;;;;;;19.30;62.10;;;;;;5047576;28;19917;-73
2022/04/12 08:33:56;;;;;;;;;;;19.50;66.00;;;;;;5053471;28;19956;-73
2022/04/12 08:36:22;;;;;;;;;;;19.80;62.00;;;;;;5051940;28;19916;-73
2022/04/12 08:38:49;;;;;;;;;;;19.80;57.80;;;;;;5036945;28;20381;-73
2022/04/12 08:41:15;;;;;;;;;;;20.10;62.10;;;;;;5034892;28;20286;-73
2022/04/12 08:43:41;;;;;;;;;;;20.10;59.00;;;;;;5034411;28;20443;-72
2022/04/12 08:46:07;;;;;;;;;;;19.50;59.80;;;;;;5034883;28;19913;-73
2022/04/12 08:48:34;;;;;;;;;;;19.70;62.20;;;;;;5036869;28;20011;-73
2022/04/12 08:51:00;;;;;;;;;;;20.40;65.10;;;;;;5034910;28;19920;-73
2022/04/12 08:53:26;;;;;;;;;;;20.90;55.90;;;;;;5048093;28;19909;-73
2022/04/12 08:55:51;;;;;;;;;;;20.70;59.70;;;;;;5046596;28;19909;-73
2022/04/12 08:58:17;;;;;;;;;;;20.60;57.60;;;;;;5037616;28;20374;-74
2022/04/12 09:00:43;;;;;;;;;;;20.70;58.50;;;;;;5046287;28;19940;-74
2022/04/12 09:03:12;;;;;;;;;;;20.30;60.80;;;;;;5037065;28;19909;-74
2022/04/12 09:05:40;;;;;;;;;;;20.40;58.40;;;;;;5042507;28;19913;-73
2022/04/12 09:08:22;;;;;;;;;;;19.90;60.20;;;;;;5035288;28;19921;-73
2022/04/12 09:10:54;;;;;;;;;;;20.10;57.80;;;;;;5050179;28;19909;-74
2022/04/12 09:13:20;;;;;;;;;;;20.40;59.40;;;;;;5036978;28;20003;-74
2022/04/12 09:15:45;;;;;;;;;;;21.00;59.10;;;;;;5049145;28;20007;-74
2022/04/12 09:18:11;;;;;;;;;;;22.10;52.60;;;;;;5051299;28;20288;-74
2022/04/12 09:20:36;;;;;;;;;;;22.50;50.90;;;;;;5036030;28;19913;-74
2022/04/12 09:23:02;;;;;;;;;;;23.00;48.20;;;;;;5035556;28;19962;-74
2022/04/12 09:25:28;;;;;;;;;;;23.00;51.70;;;;;;5052033;28;19909;-74
2022/04/12 09:27:55;;;;;;;;;;;23.50;50.90;;;;;;5053028;28;19917;-74
2022/04/12 09:30:21;;;;;;;;;;;23.80;48.30;;;;;;5055092;28;20102;-74
2022/04/12 09:32:48;;;;;;;;;;;25.00;47.40;;;;;;5050836;28;19917;-74
2022/04/12 09:35:13;;;;;;;;;;;24.90;48.50;;;;;;5051869;28;20487;-74
2022/04/12 09:37:40;;;;;;;;;;;24.60;45.50;;;;;;5055611;28;19960;-74
2022/04/12 09:40:07;;;;;;;;;;;25.80;49.20;;;;;;5055720;28;19909;-74
2022/04/12 09:42:41;;;;;;;;;;;25.60;45.70;;;;;;5054340;28;19982;-74
2022/04/12 09:45:08;;;;;;;;;;;25.70;49.90;;;;;;5051193;28;19912;-74
2022/04/12 09:47:33;;;;;;;;;;;24.70;44.60;;;;;;5054416;28;20292;-74
2022/04/12 09:50:00;;;;;;;;;;;25.00;44.70;;;;;;5053800;28;20016;-74
2022/04/12 09:52:26;;;;;;;;;;;24.50;46.60;;;;;;5054309;28;19999;-73
2022/04/12 09:54:51;;;;;;;;;;;23.70;45.60;;;;;;5053609;28;19956;-74
2022/04/12 09:57:17;;;;;;;;;;;24.40;47.40;;;;;;5051606;28;19913;-74
2022/04/12 09:59:44;;;;;;;;;;;25.70;50.00;;;;;;5053205;28;19959;-74
2022/04/12 10:02:11;;;;;;;;;;;26.40;44.00;;;;;;5049885;28;19909;-74
2022/04/12 10:04:37;;;;;;;;;;;26.80;45.80;;;;;;5053383;28;19932;-74
2022/04/12 10:07:04;;;;;;;;;;;25.70;48.00;;;;;;5053170;28;19978;-74
2022/04/12 10:09:30;;;;;;;;;;;26.10;46.80;;;;;;5053106;28;20439;-74
2022/04/12 10:11:56;;;;;;;;;;;26.10;42.40;;;;;;5052837;28;19924;-75
2022/04/12 10:14:22;;;;;;;;;;;27.20;44.90;;;;;;5053847;28;19915;-74
2022/04/12 10:16:47;;;;;;;;;;;27.80;43.30;;;;;;5052441;28;19908;-74
2022/04/12 10:19:15;;;;;;;;;;;26.80;39.30;;;;;;5053401;28;20077;-74
2022/04/12 10:21:40;;;;;;;;;;;26.60;41.50;;;;;;5053346;28;19944;-74
2022/04/12 10:24:07;;;;;;;;;;;24.70;42.90;;;;;;5051273;28;19917;-74
2022/04/12 10:26:33;;;;;;;;;;;24.90;46.60;;;;;;5054023;28;19909;-74
2022/04/12 10:28:59;;;;;;;;;;;24.80;42.50;;;;;;5053606;28;19912;-74
2022/04/12 10:31:30;;;;;;;;;;;23.60;44.40;;;;;;5046601;28;19920;-74
2022/04/12 10:34:02;;;;;;;;;;;23.90;44.70;;;;;;5053766;28;19944;-74
2022/04/12 10:36:46;;;;;;;;;;;23.90;41.20;;;;;;5054062;28;19913;-74
2022/04/12 10:39:14;;;;;;;;;;;23.80;43.60;;;;;;5053718;28;19959;-74
2022/04/12 10:41:42;;;;;;;;;;;24.50;43.50;;;;;;5053662;28;19908;-74
2022/04/12 10:44:18;;;;;;;;;;;25.50;43.90;;;;;;5053529;28;19909;-74
2022/04/12 10:46:47;;;;;;;;;;;26.70;41.00;;;;;;5052133;28;19965;-74
2022/04/12 10:49:16;;;;;;;;;;;25.80;42.50;;;;;;5053411;28;19913;-74
2022/04/12 10:51:41;;;;;;;;;;;26.80;44.60;;;;;;5052204;28;19913;-74
2022/04/12 10:54:27;;;;;;;;;;;27.00;39.70;;;;;;5052379;28;19962;-74
2022/04/12 10:57:12;;;;;;;;;;;27.70;41.50;;;;;;5049824;28;19912;-74
2022/04/12 10:59:39;;;;;;;;;;;27.30;43.60;;;;;;5044779;28;20281;-74
2022/04/12 11:02:11;;;;;;;;;;;28.40;40.30;;;;;;5042974;28;19916;-74
2022/04/12 11:04:37;;;;;;;;;;;28.30;39.60;;;;;;5037807;28;20362;-74
2022/04/12 11:07:05;;;;;;;;;;;28.70;41.10;;;;;;5038334;28;19917;-74
2022/04/12 11:09:31;;;;;;;;;;;29.00;38.90;;;;;;5052032;28;20019;-74
2022/04/12 11:12:01;;;;;;;;;;;27.80;39.80;;;;;;5051883;28;20012;-74
2022/04/12 11:14:36;;;;;;;;;;;27.80;43.10;;;;;;5053051;28;19909;-74
2022/04/12 11:17:03;;;;;;;;;;;28.00;43.50;;;;;;5052601;28;19919;-74
2022/04/12 11:19:39;;;;;;;;;;;28.50;40.10;;;;;;5052933;28;19909;-74
2022/04/12 11:22:04;;;;;;;;;;;29.20;40.00;;;;;;5043477;28;20004;-74
2022/04/12 11:24:30;;;;;;;;;;;26.90;39.20;;;;;;5051574;28;19999;-74
2022/04/12 11:27:05;;;;;;;;;;;27.40;40.80;;;;;;5052366;28;19909;-72
2022/04/12 11:29:31;;;;;;;;;;;26.90;39.60;;;;;;5051719;28;19995;-73
2022/04/12 11:31:57;;;;;;;;;;;27.30;41.40;;;;;;5052104;28;20334;-73
2022/04/12 11:34:23;;;;;;;;;;;27.70;42.60;;;;;;5052017;28;19909;-74
2022/04/12 11:36:52;;;;;;;;;;;27.60;38.80;;;;;;5052786;28;19908;-74
2022/04/12 11:39:18;;;;;;;;;;;26.70;41.90;;;;;;5052234;28;19909;-73
2022/04/12 11:41:44;;;;;;;;;;;25.00;44.90;;;;;;5052208;28;20425;-73
2022/04/12 11:44:09;;;;;;;;;;;24.30;43.90;;;;;;5052989;28;19959;-73
2022/04/12 11:46:36;;;;;;;;;;;24.30;47.60;;;;;;5052029;28;19909;-73
2022/04/12 11:49:12;;;;;;;;;;;24.10;46.90;;;;;;5051895;28;19920;-74
2022/04/12 11:51:41;;;;;;;;;;;24.20;45.70;;;;;;5044672;28;19913;-73
2022/04/12 11:54:24;;;;;;;;;;;23.50;44.20;;;;;;5047913;28;19913;-73
2022/04/12 11:57:02;;;;;;;;;;;23.80;45.60;;;;;;5051521;28;19916;-74
2022/04/12 11:59:29;;;;;;;;;;;24.40;47.80;;;;;;5051604;28;20017;-74
2022/04/12 12:01:59;;;;;;;;;;;24.00;45.40;;;;;;5050510;28;20034;-74
2022/04/12 12:04:30;;;;;;;;;;;24.40;49.30;;;;;;5047912;28;20016;-74
2022/04/12 12:07:06;;;;;;;;;;;24.30;45.60;;;;;;5050527;28;20003;-74
2022/04/12 12:09:32;;;;;;;;;;;23.90;47.90;;;;;;5044754;28;19959;-74
2022/04/12 12:11:59;;;;;;;;;;;24.20;48.60;;;;;;5051261;28;19908;-74
2022/04/12 12:14:27;;;;;;;;;;;23.90;45.70;;;;;;5051464;28;19913;-74
2022/04/12 12:17:22;;;;;;;;;;;23.50;46.10;;;;;;5048088;28;19913;-74
2022/04/12 12:19:48;;;;;;;;;;;23.20;46.80;;;;;;5045385;28;19916;-74
2022/04/12 12:22:14;;;;;;;;;;;23.40;49.90;;;;;;5051207;28;20559;-74
2022/04/12 12:24:48;;;;;;;;;;;23.10;50.00;;;;;;5051111;28;19909;-74
2022/04/12 12:27:14;;;;;;;;;;;23.00;49.10;;;;;;5046628;28;20281;-74
2022/04/12 12:29:42;;;;;;;;;;;23.10;50.70;;;;;;5050951;28;19913;-74
2022/04/12 12:32:08;;;;;;;;;;;23.20;52.90;;;;;;5046063;28;19913;-74
2022/04/12 12:34:34;;;;;;;;;;;23.00;51.90;;;;;;5050676;28;19920;-75
2022/04/12 12:37:07;;;;;;;;;;;22.80;53.00;;;;;;5044525;28;19913;-74
2022/04/12 12:39:37;;;;;;;;;;;22.70;50.40;;;;;;5034779;28;19969;-74
2022/04/12 12:42:03;;;;;;;;;;;22.40;48.60;;;;;;5034579;28;19909;-74
2022/04/12 12:44:32;;;;;;;;;;;22.60;51.20;;;;;;5048700;28;19932;-74
2022/04/12 12:46:59;;;;;;;;;;;22.40;48.50;;;;;;5050577;28;19920;-74
2022/04/12 12:49:33;;;;;;;;;;;22.50;49.30;;;;;;5042596;28;19917;-74
2022/04/12 12:52:01;;;;;;;;;;;22.80;51.80;;;;;;5050523;28;19955;-75
2022/04/12 12:54:27;;;;;;;;;;;23.00;49.70;;;;;;5050612;28;19909;-74
2022/04/12 12:56:52;;;;;;;;;;;22.90;52.80;;;;;;5049078;28;19952;-75
2022/04/12 12:59:19;;;;;;;;;;;22.80;50.60;;;;;;5046836;28;20377;-75
2022/04/12 13:01:46;;;;;;;;;;;22.80;48.40;;;;;;5048515;28;19909;-74
2022/04/12 13:04:26;;;;;;;;;;;22.90;52.60;;;;;;5052340;28;19908;-74
2022/04/12 13:07:08;;;;;;;;;;;22.90;51.50;;;;;;5048472;28;19913;-74
2022/04/12 13:09:40;;;;;;;;;;;22.70;48.20;;;;;;5050478;28;19974;-74
2022/04/12 13:12:07;;;;;;;;;;;22.60;51.10;;;;;;5054566;28;19913;-74
2022/04/12 13:14:33;;;;;;;;;;;23.10;50.70;;;;;;5053742;28;20332;-74
2022/04/12 13:16:58;;;;;;;;;;;23.10;51.70;;;;;;5054320;28;19962;-74
2022/04/12 13:19:28;;;;;;;;;;;23.10;48.70;;;;;;5054589;28;19944;-75
2022/04/12 13:21:53;;;;;;;;;;;22.80;52.00;;;;;;5054355;28;19920;-75
2022/04/12 13:24:20;;;;;;;;;;;22.50;49.00;;;;;;5054546;28;19909;-74
2022/04/12 13:26:45;;;;;;;;;;;22.70;52.00;;;;;;5054559;28;19991;-75
2022/04/12 13:29:11;;;;;;;;;;;22.40;51.80;;;;;;5054052;28;20016;-74
2022/04/12 13:31:36;;;;;;;;;;;22.50;51.80;;;;;;5053850;28;20369;-75
2022/04/12 13:34:02;;;;;;;;;;;22.80;55.10;;;;;;5054191;28;19916;-75
2022/04/12 13:36:27;;;;;;;;;;;22.50;49.90;;;;;;5054159;28;19966;-74
2022/04/12 13:38:53;;;;;;;;;;;22.70;51.00;;;;;;5054132;28;20412;-75
2022/04/12 13:41:18;;;;;;;;;;;22.70;49.50;;;;;;5054346;28;19924;-74
2022/04/12 13:43:44;;;;;;;;;;;22.40;51.50;;;;;;5054275;28;19999;-74
2022/04/12 13:46:09;;;;;;;;;;;22.50;50.10;;;;;;5048613;28;20396;-75
2022/04/12 13:48:36;;;;;;;;;;;22.30;53.40;;;;;;5054165;28;19913;-75
2022/04/12 13:51:02;;;;;;;;;;;22.60;54.80;;;;;;5053905;28;19995;-75
2022/04/12 13:53:28;;;;;;;;;;;22.70;52.00;;;;;;5053669;28;19915;-75
2022/04/12 13:55:53;;;;;;;;;;;22.70;53.20;;;;;;5053873;28;20008;-74
2022/04/12 13:58:19;;;;;;;;;;;22.50;49.60;;;;;;5053785;28;20305;-75
2022/04/12 14:00:44;;;;;;;;;;;22.60;50.40;;;;;;5051376;28;19916;-75
2022/04/12 14:03:11;;;;;;;;;;;22.90;53.00;;;;;;5053098;28;19913;-74
2022/04/12 14:05:38;;;;;;;;;;;22.80;50.50;;;;;;5053730;28;19909;-75
2022/04/12 14:08:05;;;;;;;;;;;22.90;52.70;;;;;;5053637;28;19920;-73
2022/04/12 14:10:31;;;;;;;;;;;23.10;54.10;;;;;;5054350;28;19955;-73
2022/04/12 14:12:56;;;;;;;;;;;22.80;51.30;;;;;;5053480;28;19912;-73
2022/04/12 14:15:22;;;;;;;;;;;22.70;50.50;;;;;;5054037;28;19908;-74
2022/04/12 14:17:47;;;;;;;;;;;22.80;52.90;;;;;;5053677;28;19917;-74
2022/04/12 14:20:13;;;;;;;;;;;23.00;50.00;;;;;;5053438;28;19909;-73
2022/04/12 14:22:38;;;;;;;;;;;23.10;48.80;;;;;;5053277;28;19923;-74